Time;durP1;ratioP1;P1;durP2;ratioP2;P2;SDS_P1;SDS_P2;PMS_P1;PMS_P2;Temp;Humidity;BMP_temperature;BMP_pressure;BME280_temperature;BME280_humidity;BME280_pressure;Samples;Min_cycle;Max_cycle;Signal;HPM_P1;HPM_P2
2021/12/08 00:01:45;;;;;;;29.70;22.00;;;;;;;13.07;63.19;99247.23;117358;1182;21860;-59
2021/12/08 00:04:16;;;;;;;30.80;21.40;;;;;;;13.09;63.18;99245.17;117488;1185;21846;-58
2021/12/08 00:06:44;;;;;;;31.60;21.80;;;;;;;13.09;63.16;99239.90;117351;1184;21845;-56
2021/12/08 00:14:33;;;;;;;25.50;20.50;;;;;;;13.06;63.22;99238.59;117336;1186;21860;-59
2021/12/08 00:17:03;;;;;;;25.40;20.40;;;;;;;13.09;63.17;99243.11;117334;1186;22986;-59
2021/12/08 00:19:31;;;;;;;23.10;18.50;;;;;;;13.13;63.02;99247.34;117360;1186;22086;-61
2021/12/08 00:21:59;;;;;;;24.10;18.60;;;;;;;13.17;63.02;99255.27;117288;1185;21859;-56
2021/12/08 00:24:28;;;;;;;21.20;16.20;;;;;;;13.12;63.17;99260.40;117389;1186;21926;-59
2021/12/08 00:26:56;;;;;;;22.20;17.40;;;;;;;13.11;63.21;99258.88;117347;1184;21857;-56
2021/12/08 00:29:24;;;;;;;22.80;16.30;;;;;;;13.13;63.32;99255.98;117383;1186;22003;-56
2021/12/08 00:31:52;;;;;;;20.50;15.80;;;;;;;13.12;63.31;99253.00;117306;1186;22531;-59
2021/12/08 00:34:21;;;;;;;19.90;14.90;;;;;;;13.13;63.27;99246.64;117368;1186;21858;-56
2021/12/08 00:36:52;;;;;;;18.50;15.50;;;;;;;13.14;63.29;99248.89;117287;1182;21863;-56
2021/12/08 00:39:21;;;;;;;21.60;15.20;;;;;;;13.18;63.22;99246.80;117364;1183;21870;-56
2021/12/08 00:41:49;;;;;;;18.30;14.70;;;;;;;13.18;63.27;99250.14;117317;1183;21859;-60
2021/12/08 00:44:17;;;;;;;22.80;14.90;;;;;;;13.16;63.27;99253.91;117328;1185;21864;-56
2021/12/08 00:46:46;;;;;;;18.90;14.30;;;;;;;13.18;63.15;99256.66;117370;1184;21857;-60
2021/12/08 00:49:16;;;;;;;19.10;14.30;;;;;;;13.22;63.19;99254.00;117374;1186;21857;-56
2021/12/08 00:51:44;;;;;;;;;;;;;;;13.20;63.24;99245.09;117368;1184;21841;-57
2021/12/08 00:54:12;;;;;;;17.00;12.70;;;;;;;13.21;63.16;99245.05;117373;1186;23116;-56
2021/12/08 00:56:41;;;;;;;17.50;13.10;;;;;;;13.23;63.19;99244.64;117355;1186;21858;-56
2021/12/08 00:59:09;;;;;;;15.60;12.80;;;;;;;13.27;62.97;99237.93;117387;1186;21864;-57
2021/12/08 01:01:38;;;;;;;16.40;12.90;;;;;;;13.28;63.05;99234.02;117386;1185;21867;-56
2021/12/08 01:04:06;;;;;;;16.70;12.60;;;;;;;13.29;63.06;99234.51;117363;1185;23560;-59
2021/12/08 01:06:35;;;;;;;16.20;13.00;;;;;;;13.30;63.05;99231.33;117399;1184;21859;-59
2021/12/08 01:09:03;;;;;;;15.80;12.90;;;;;;;13.30;63.07;99226.73;117380;1184;21861;-59
2021/12/08 01:11:31;;;;;;;17.30;12.90;;;;;;;13.30;62.98;99227.44;117310;1183;21859;-60
2021/12/08 01:13:59;;;;;;;15.50;12.50;;;;;;;13.30;62.97;99230.42;117294;1183;21879;-57
2021/12/08 01:16:28;;;;;;;14.70;12.20;;;;;;;13.30;63.01;99227.78;117369;1185;23478;-56
2021/12/08 01:18:56;;;;;;;16.20;11.80;;;;;;;13.30;63.02;99218.95;117281;1183;24171;-56
2021/12/08 01:21:24;;;;;;;14.80;12.00;;;;;;;13.31;63.08;99220.71;117362;1186;23487;-59
2021/12/08 01:23:53;;;;;;;14.90;11.70;;;;;;;13.28;63.11;99223.46;117325;1189;21900;-56
2021/12/08 01:26:21;;;;;;;14.30;11.40;;;;;;;13.27;63.06;99217.34;117353;1186;21860;-56
2021/12/08 01:28:51;;;;;;;16.50;11.80;;;;;;;13.24;63.05;99214.98;117439;1181;21898;-56
2021/12/08 01:31:20;;;;;;;14.60;11.70;;;;;;;13.24;63.09;99212.37;117371;1185;22151;-59
2021/12/08 01:33:48;;;;;;;13.60;11.80;;;;;;;13.23;63.13;99208.70;117376;1184;23615;-61
2021/12/08 01:36:17;;;;;;;15.00;11.70;;;;;;;13.22;62.98;99207.68;117355;1183;21855;-59
2021/12/08 01:38:45;;;;;;;13.80;10.90;;;;;;;13.20;63.19;99209.36;117358;1182;21846;-56
2021/12/08 01:41:13;;;;;;;12.10;10.30;;;;;;;13.20;63.00;99215.02;117411;1185;23228;-56
2021/12/08 01:46:29;;;;;;;12.50;9.90;;;;;;;13.22;62.79;99215.06;117375;1185;21857;-56
2021/12/08 01:48:57;;;;;;;12.50;9.40;;;;;;;13.16;63.10;99217.44;117314;1185;23552;-56
2021/12/08 01:51:25;;;;;;;12.10;9.70;;;;;;;13.16;63.08;99206.89;117341;1186;23639;-58
2021/12/08 01:53:55;;;;;;;12.20;10.00;;;;;;;13.15;63.12;99202.88;117374;1184;21893;-57
2021/12/08 01:56:24;;;;;;;13.00;9.90;;;;;;;13.15;63.10;99199.35;117351;1186;21846;-57
2021/12/08 01:58:52;;;;;;;11.80;9.20;;;;;;;13.15;63.06;99197.57;117408;1185;21858;-59
2021/12/08 02:01:22;;;;;;;11.70;8.40;;;;;;;13.14;63.22;99196.55;117323;1186;22916;-59
2021/12/08 02:03:50;;;;;;;12.70;9.40;;;;;;;13.15;63.10;99196.00;117324;1186;23628;-56
2021/12/08 02:06:19;;;;;;;9.80;8.20;;;;;;;13.16;63.07;99191.39;117381;1182;23043;-59
2021/12/08 02:08:50;;;;;;;10.60;8.50;;;;;;;13.15;63.14;99192.30;117406;1185;21859;-60
2021/12/08 02:11:20;;;;;;;9.70;8.70;;;;;;;13.16;63.19;99192.79;117149;1184;21859;-56
2021/12/08 02:13:51;;;;;;;11.50;8.90;;;;;;;13.16;63.11;99192.27;117284;1186;21863;-57
2021/12/08 02:16:20;;;;;;;10.70;8.60;;;;;;;13.13;63.25;99193.60;117268;1186;21858;-57
2021/12/08 02:18:50;;;;;;;10.40;7.60;;;;;;;13.13;63.15;99190.64;117381;1184;21865;-56
2021/12/08 02:21:27;;;;;;;10.40;7.90;;;;;;;13.13;63.20;99189.77;117392;1185;21994;-59
2021/12/08 02:23:57;;;;;;;10.20;7.80;;;;;;;13.12;63.13;99188.36;117433;1182;22629;-59
2021/12/08 02:26:26;;;;;;;10.70;8.40;;;;;;;13.13;63.17;99185.17;117431;1185;22662;-56
2021/12/08 02:28:54;;;;;;;10.30;8.50;;;;;;;13.13;63.17;99183.59;117370;1184;24145;-56
2021/12/08 02:31:36;;;;;;;11.90;8.20;;;;;;;13.12;63.06;99182.20;117362;1186;22983;-59
2021/12/08 02:48:00;;;;;;;14.60;9.10;;;;;;;13.06;63.16;99172.42;117344;1185;21870;-55
2021/12/08 02:50:32;;;;;;;10.60;8.10;;;;;;;13.05;63.23;99176.52;117364;1186;21868;-59
2021/12/08 02:53:00;;;;;;;10.90;8.70;;;;;;;13.06;63.27;99183.83;117357;1189;21863;-57
2021/12/08 02:55:29;;;;;;;10.10;7.80;;;;;;;13.07;63.34;99181.00;117280;1186;21840;-60
2021/12/08 02:57:57;;;;;;;10.50;8.50;;;;;;;13.06;63.14;99176.30;117325;1184;23634;-55
2021/12/08 03:00:27;;;;;;;12.70;9.70;;;;;;;13.06;63.28;99183.71;117403;1184;21856;-56
2021/12/08 03:02:56;;;;;;;14.00;10.10;;;;;;;13.06;63.33;99190.34;117281;1184;21864;-56
2021/12/08 03:05:25;;;;;;;13.90;9.40;;;;;;;13.07;63.32;99195.42;117441;1184;21857;-59
2021/12/08 03:07:53;;;;;;;14.80;10.00;;;;;;;13.07;63.19;99188.20;117325;1185;21855;-56
2021/12/08 03:10:24;;;;;;;14.70;10.10;;;;;;;13.06;63.33;99185.08;117315;1186;21883;-58
2021/12/08 03:12:58;;;;;;;12.30;9.80;;;;;;;13.05;63.29;99183.90;117264;1182;21880;-57
2021/12/08 03:15:27;;;;;;;12.50;9.60;;;;;;;13.04;63.26;99184.31;117388;1185;21972;-59
2021/12/08 03:17:55;;;;;;;13.50;10.00;;;;;;;13.01;63.22;99183.00;117320;1184;21867;-56
2021/12/08 03:20:37;;;;;;;14.30;10.30;;;;;;;13.00;63.21;99183.58;117345;1186;21848;-56
2021/12/08 03:23:12;;;;;;;17.60;10.40;;;;;;;12.99;63.12;99177.63;117367;1184;22706;-56
2021/12/08 03:25:43;;;;;;;16.60;10.90;;;;;;;12.90;63.39;99176.05;117368;1185;21918;-60
2021/12/08 03:28:23;;;;;;;14.50;10.50;;;;;;;12.84;63.62;99170.32;117387;1184;21853;-60
2021/12/08 03:31:01;;;;;;;15.60;11.40;;;;;;;12.90;63.30;99172.21;117419;1185;22004;-60
2021/12/08 03:33:30;;;;;;;14.60;11.60;;;;;;;12.82;63.54;99174.81;117368;1185;22612;-60
2021/12/08 03:35:59;;;;;;;18.50;11.50;;;;;;;12.79;63.40;99172.47;117400;1184;23469;-58
2021/12/08 03:38:27;;;;;;;16.70;11.80;;;;;;;12.78;63.49;99173.40;117389;1185;22889;-60
2021/12/08 03:40:57;;;;;;;18.50;12.20;;;;;;;12.76;63.69;99170.32;117387;1188;21858;-57
2021/12/08 03:43:26;;;;;;;20.50;13.50;;;;;;;12.75;63.47;99167.14;117372;1185;22952;-56
2021/12/08 03:45:54;;;;;;;25.40;13.90;;;;;;;12.81;63.38;99165.49;117393;1184;21856;-56
2021/12/08 03:48:31;;;;;;;24.70;14.70;;;;;;;12.88;63.34;99166.81;117369;1183;22911;-56
2021/12/08 03:51:00;;;;;;;26.20;16.90;;;;;;;12.88;63.13;99170.17;117339;1186;21891;-61
2021/12/08 03:53:29;;;;;;;24.40;17.20;;;;;;;12.86;63.20;99169.54;117342;1185;21866;-56
2021/12/08 03:55:57;;;;;;;28.30;17.90;;;;;;;12.85;63.29;99165.02;117315;1181;21848;-61
2021/12/08 03:58:25;;;;;;;26.40;16.60;;;;;;;12.83;63.23;99166.49;117365;1186;21864;-60
2021/12/08 04:00:54;;;;;;;29.30;17.70;;;;;;;12.82;63.18;99177.80;117328;1186;21845;-60
2021/12/08 04:03:25;;;;;;;26.60;18.30;;;;;;;12.81;63.18;99176.60;117444;1186;22613;-60
2021/12/08 04:05:59;;;;;;;28.60;18.20;;;;;;;12.79;63.23;99175.27;117345;1185;21853;-60
2021/12/08 04:08:32;;;;;;;33.80;19.50;;;;;;;12.79;63.15;99178.82;117391;1184;21838;-57
2021/12/08 04:11:03;;;;;;;30.70;19.20;;;;;;;12.78;63.30;99174.79;117365;1185;21860;-56
2021/12/08 04:13:40;;;;;;;32.50;20.80;;;;;;;12.78;63.33;99175.70;117351;1185;21848;-57
2021/12/08 04:16:08;;;;;;;26.50;19.00;;;;;;;12.77;63.27;99178.19;117478;1185;23434;-57
2021/12/08 04:18:37;;;;;;;33.00;20.50;;;;;;;12.76;63.06;99181.91;117146;1187;23435;-57
2021/12/08 04:21:06;;;;;;;36.00;20.80;;;;;;;12.75;62.98;99184.59;117315;1184;21849;-60
2021/12/08 04:23:36;;;;;;;30.40;20.80;;;;;;;12.75;63.22;99188.13;117447;1186;21841;-61
2021/12/08 04:26:10;;;;;;;32.00;21.40;;;;;;;12.74;63.13;99189.92;117111;1187;22186;-57
2021/12/08 04:28:40;;;;;;;31.70;21.70;;;;;;;12.73;63.22;99191.38;117330;1186;21861;-60
2021/12/08 04:31:16;;;;;;;34.60;21.90;;;;;;;12.72;63.14;99191.92;117338;1184;23479;-60
2021/12/08 04:34:06;;;;;;;32.30;20.70;;;;;;;12.73;63.16;99187.86;117316;1189;21860;-56
2021/12/08 04:36:42;;;;;;;33.20;22.00;;;;;;;12.71;63.21;99191.41;117362;1185;21861;-61
2021/12/08 04:39:16;;;;;;;32.30;22.30;;;;;;;12.71;63.31;99190.04;117294;1185;21855;-61
2021/12/08 04:41:50;;;;;;;41.90;22.80;;;;;;;12.68;63.23;99188.40;117538;1184;21861;-61
2021/12/08 04:44:32;;;;;;;37.60;24.10;;;;;;;12.72;63.30;99190.17;117073;1187;22625;-62
2021/12/08 04:47:30;;;;;;;45.30;23.30;;;;;;;12.76;63.21;99193.87;117332;1186;23436;-59
2021/12/08 04:53:11;;;;;;;40.20;24.60;;;;;;;12.83;63.26;99192.55;117305;1184;21986;-61
2021/12/08 05:09:24;;;;;;;37.80;23.20;;;;;;;12.81;63.17;99190.70;117329;1185;21856;-60
2021/12/08 05:11:58;;;;;;;41.00;23.90;;;;;;;12.79;63.36;99193.93;117325;1185;21880;-60
2021/12/08 05:14:32;;;;;;;40.20;23.90;;;;;;;12.77;63.25;99189.45;117357;1184;23449;-59
2021/12/08 05:17:05;;;;;;;32.70;20.60;;;;;;;12.76;63.14;99188.58;117107;1186;22154;-60
2021/12/08 05:19:33;;;;;;;45.90;22.70;;;;;;;12.76;63.29;99186.14;117332;1185;23616;-60
2021/12/08 05:22:26;;;;;;;37.30;21.90;;;;;;;12.73;63.26;99193.29;117338;1186;23458;-61
2021/12/08 05:24:55;;;;;;;39.80;22.50;;;;;;;12.77;63.15;99195.41;117255;1186;22913;-60
2021/12/08 05:27:33;;;;;;;34.50;21.90;;;;;;;12.78;63.10;99198.23;117184;1184;24149;-61
2021/12/08 05:30:08;;;;;;;34.20;22.70;;;;;;;12.75;63.12;99205.73;117312;1185;21975;-60
2021/12/08 05:32:36;;;;;;;36.40;22.50;;;;;;;12.73;63.20;99205.98;117297;1182;23583;-56
2021/12/08 05:35:07;;;;;;;32.20;21.70;;;;;;;12.68;63.29;99208.64;117262;1185;23554;-62
2021/12/08 05:37:35;;;;;;;32.00;21.60;;;;;;;12.63;63.38;99209.51;117340;1186;21856;-58
2021/12/08 05:40:10;;;;;;;33.50;21.90;;;;;;;12.61;63.25;99212.40;117424;1184;21845;-60
2021/12/08 05:42:39;;;;;;;38.90;23.40;;;;;;;12.59;63.33;99216.70;117318;1186;23622;-60
2021/12/08 05:45:12;;;;;;;36.60;20.80;;;;;;;12.57;63.29;99215.42;117306;1184;22767;-56
2021/12/08 05:47:40;;;;;;;36.50;22.40;;;;;;;12.56;63.30;99217.73;117323;1186;22904;-61
2021/12/08 05:50:09;;;;;;;42.80;23.40;;;;;;;12.53;63.12;99216.78;117347;1184;21847;-56
2021/12/08 05:52:38;;;;;;;38.80;22.70;;;;;;;12.50;63.10;99217.79;117319;1186;21912;-62
2021/12/08 05:55:07;;;;;;;38.60;24.00;;;;;;;12.50;63.31;99220.95;117341;1184;21898;-60
2021/12/08 05:57:38;;;;;;;37.30;24.00;;;;;;;12.50;63.23;99225.17;117323;1186;22059;-62
2021/12/08 06:00:13;;;;;;;36.10;25.10;;;;;;;12.48;63.12;99223.48;117322;1186;21901;-62
2021/12/08 06:02:42;;;;;;;41.50;26.50;;;;;;;12.47;63.20;99226.32;117334;1186;21845;-62
2021/12/08 06:05:11;;;;;;;46.00;27.40;;;;;;;12.48;63.25;99232.96;117294;1186;22705;-63
2021/12/08 06:07:39;;;;;;;63.70;32.20;;;;;;;12.46;63.22;99233.24;117340;1186;22313;-58
2021/12/08 06:10:14;;;;;;;44.50;26.30;;;;;;;12.46;63.31;99232.17;117308;1185;23433;-63
2021/12/08 06:12:43;;;;;;;54.10;26.40;;;;;;;12.46;63.49;99228.11;117365;1185;23615;-60
2021/12/08 06:15:12;;;;;;;50.90;29.30;;;;;;;12.46;63.23;99229.89;117340;1184;21856;-60
2021/12/08 06:17:40;;;;;;;48.30;27.70;;;;;;;12.47;63.44;99232.83;117401;1189;21865;-60
2021/12/08 06:20:14;;;;;;;66.60;36.30;;;;;;;12.47;63.43;99231.98;117446;1186;22628;-60
2021/12/08 06:22:43;;;;;;;65.50;33.80;;;;;;;12.48;63.36;99237.20;117393;1186;23049;-62
2021/12/08 06:25:12;;;;;;;51.10;29.00;;;;;;;12.42;63.39;99242.55;117359;1186;22931;-63
2021/12/08 06:27:40;;;;;;;54.90;27.50;;;;;;;12.23;63.69;99245.89;117062;1187;23553;-60
2021/12/08 06:30:10;;;;;;;40.60;23.30;;;;;;;12.18;63.81;99247.26;117336;1186;21990;-62
2021/12/08 06:32:39;;;;;;;36.40;23.20;;;;;;;12.18;64.07;99254.84;117279;1186;21858;-62
2021/12/08 06:35:16;;;;;;;40.90;25.00;;;;;;;12.31;63.63;99260.36;117327;1184;21856;-63
2021/12/08 06:37:44;;;;;;;45.60;23.50;;;;;;;12.29;63.87;99253.23;117313;1186;21859;-63
2021/12/08 06:40:20;;;;;;;38.00;21.90;;;;;;;12.25;63.82;99258.31;117413;1187;22929;-59
2021/12/08 06:42:51;;;;;;;40.70;23.20;;;;;;;12.25;63.94;99257.79;117312;1186;22933;-63
2021/12/08 06:45:24;;;;;;;37.60;21.30;;;;;;;12.29;64.14;99255.36;117353;1185;21859;-57
2021/12/08 06:47:54;;;;;;;34.30;21.70;;;;;;;12.30;64.09;99258.10;117324;1185;23437;-63
2021/12/08 06:50:26;;;;;;;37.00;21.30;;;;;;;12.33;63.98;99259.06;117334;1186;21866;-59
2021/12/08 06:52:55;;;;;;;32.60;20.30;;;;;;;12.35;63.96;99258.29;117326;1186;23076;-59
2021/12/08 06:55:32;;;;;;;32.90;19.70;;;;;;;12.36;63.99;99260.02;117494;1185;23459;-63
2021/12/08 06:58:07;;;;;;;31.90;18.40;;;;;;;12.33;63.91;99254.83;117337;1184;22914;-62
2021/12/08 07:01:13;;;;;;;30.30;19.30;;;;;;;12.32;64.02;99253.82;117330;1188;22932;-63
2021/12/08 07:06:45;;;;;;;29.70;18.10;;;;;;;12.24;64.00;99249.56;117340;1185;21865;-63
2021/12/08 07:09:18;;;;;;;27.20;16.60;;;;;;;12.24;63.94;99253.08;117350;1184;22648;-63
2021/12/08 07:11:48;;;;;;;28.70;17.30;;;;;;;12.24;63.90;99249.73;117422;1185;21888;-59
2021/12/08 07:14:16;;;;;;;25.20;16.30;;;;;;;12.25;63.71;99251.63;117415;1185;22060;-61
2021/12/08 07:16:53;;;;;;;23.90;15.80;;;;;;;12.24;63.82;99251.64;117348;1182;23434;-59
2021/12/08 07:19:34;;;;;;;26.10;14.80;;;;;;;12.24;63.91;99251.81;117284;1186;21868;-58
2021/12/08 07:22:25;;;;;;;26.70;15.50;;;;;;;12.25;63.86;99250.04;117326;1185;21896;-58
2021/12/08 07:24:55;;;;;;;26.30;15.50;;;;;;;12.24;63.81;99250.59;117318;1185;21849;-63
2021/12/08 07:27:28;;;;;;;31.20;15.50;;;;;;;12.23;63.87;99248.34;117288;1186;23434;-59
2021/12/08 07:29:59;;;;;;;28.80;14.60;;;;;;;12.23;63.92;99255.56;117252;1186;22917;-63
2021/12/08 07:32:30;;;;;;;24.50;14.70;;;;;;;12.25;64.07;99253.05;119172;1184;23437;-64
2021/12/08 07:35:00;;;;;;;25.20;14.70;;;;;;;12.20;64.01;99254.77;119377;1185;21858;-64
2021/12/08 07:37:31;;;;;;;21.50;14.80;;;;;;;12.17;64.08;99258.06;117339;1184;22725;-58
2021/12/08 07:40:01;;;;;;;;;;;;;;;12.17;64.23;99256.64;117358;1186;21878;-58
2021/12/08 07:42:36;;;;;;;20.60;13.20;;;;;;;12.20;64.11;99257.61;117326;1185;22893;-59
2021/12/08 07:45:08;;;;;;;20.70;12.30;;;;;;;12.25;64.08;99257.40;117367;1186;23561;-63
2021/12/08 07:47:37;;;;;;;18.80;12.10;;;;;;;12.30;63.94;99259.34;117336;1186;21859;-63
2021/12/08 07:50:21;;;;;;;18.40;11.70;;;;;;;12.30;63.90;99260.39;117363;1185;22642;-63
2021/12/08 07:52:50;;;;;;;21.90;12.90;;;;;;;12.30;63.83;99262.67;117332;1185;23462;-59
2021/12/08 07:55:28;;;;;;;21.00;11.90;;;;;;;12.28;63.92;99263.30;117364;1185;21974;-63
2021/12/08 07:57:57;;;;;;;18.10;11.70;;;;;;;12.29;63.94;99262.73;117325;1186;21859;-59
2021/12/08 08:00:30;;;;;;;20.10;11.20;;;;;;;12.29;63.98;99263.08;117320;1186;21845;-63
2021/12/08 08:02:59;;;;;;;17.80;10.40;;;;;;;12.31;63.90;99266.36;117275;1186;21860;-58
2021/12/08 08:05:28;;;;;;;18.40;10.60;;;;;;;12.32;64.07;99263.85;118340;1182;23536;-59
2021/12/08 08:07:58;;;;;;;18.70;10.20;;;;;;;12.32;64.07;99266.30;117359;1185;21980;-58
2021/12/08 08:10:28;;;;;;;16.40;10.60;;;;;;;12.33;64.04;99265.73;117258;1187;21866;-58
2021/12/08 08:13:01;;;;;;;16.10;10.50;;;;;;;12.34;64.07;99269.58;117258;1185;21865;-58
2021/12/08 08:15:32;;;;;;;18.70;10.90;;;;;;;12.34;63.95;99270.29;117286;1182;22821;-63
2021/12/08 08:18:06;;;;;;;17.00;9.60;;;;;;;12.35;64.05;99268.66;117332;1186;21864;-63
2021/12/08 08:20:37;;;;;;;14.60;8.90;;;;;;;12.36;64.02;99261.61;117309;1184;24149;-59
2021/12/08 08:23:05;;;;;;;15.30;9.10;;;;;;;12.34;64.06;99260.41;117359;1186;22557;-62
2021/12/08 08:25:37;;;;;;;13.90;8.80;;;;;;;12.37;63.92;99261.19;117192;1186;22470;-62
2021/12/08 08:28:05;;;;;;;13.20;8.30;;;;;;;12.31;63.79;99258.42;118795;1186;24172;-63
2021/12/08 08:30:37;;;;;;;16.10;7.70;;;;;;;12.26;63.82;99262.83;117355;1185;22648;-60
2021/12/08 08:33:06;;;;;;;11.70;7.40;;;;;;;12.20;63.70;99265.88;117346;1185;22058;-60
2021/12/08 08:35:41;;;;;;;13.10;7.10;;;;;;;12.15;63.70;99262.70;117306;1185;21859;-57
2021/12/08 08:38:18;;;;;;;10.90;6.70;;;;;;;12.08;63.60;99260.85;117309;1184;23471;-60
2021/12/08 08:40:55;;;;;;;11.10;6.60;;;;;;;12.03;63.78;99257.52;117328;1186;21871;-61
2021/12/08 08:43:23;;;;;;;10.60;6.50;;;;;;;11.96;63.83;99255.96;117339;1186;21859;-61
2021/12/08 08:45:58;;;;;;;13.20;6.50;;;;;;;11.98;63.57;99255.20;117319;1185;23433;-57
2021/12/08 08:48:29;;;;;;;9.80;6.00;;;;;;;11.93;63.82;99251.16;117335;1185;21895;-59
2021/12/08 08:51:24;;;;;;;10.30;5.60;;;;;;;11.89;63.88;99248.66;117310;1186;21859;-60
2021/12/08 08:53:54;;;;;;;8.50;5.50;;;;;;;11.89;63.88;99247.79;117333;1185;23555;-56
2021/12/08 08:56:26;;;;;;;9.20;5.70;;;;;;;11.87;63.73;99245.04;117374;1186;24159;-56
2021/12/08 08:58:58;;;;;;;8.80;5.10;;;;;;;11.86;63.60;99238.41;117324;1184;22725;-60
2021/12/08 09:01:30;;;;;;;10.30;5.40;;;;;;;11.79;63.80;99237.77;117208;1185;24146;-56
2021/12/08 09:04:04;;;;;;;9.40;6.00;;;;;;;11.75;63.81;99238.79;117527;1186;22089;-56
2021/12/08 09:06:38;;;;;;;7.60;5.40;;;;;;;11.74;63.88;99237.42;117277;1185;21858;-60
2021/12/08 09:09:20;;;;;;;8.40;5.70;;;;;;;11.78;63.75;99236.05;117145;1187;22933;-60
2021/12/08 09:12:07;;;;;;;7.50;5.60;;;;;;;11.78;63.54;99232.52;117313;1184;21845;-61
2021/12/08 09:14:52;;;;;;;10.60;5.30;;;;;;;11.79;63.55;99231.27;117303;1184;21860;-60
2021/12/08 09:17:41;;;;;;;7.50;5.10;;;;;;;11.83;63.60;99229.02;117321;1186;21848;-56
2021/12/08 09:20:26;;;;;;;5.60;4.20;;;;;;;11.82;63.55;99230.11;117328;1183;21855;-57
2021/12/08 09:23:17;;;;;;;8.20;4.60;;;;;;;11.82;63.63;99232.06;117291;1185;21848;-56
2021/12/08 09:26:10;;;;;;;8.60;4.70;;;;;;;11.80;63.66;99229.27;117341;1188;22913;-61
2021/12/08 09:28:45;;;;;;;11.90;4.60;;;;;;;11.81;63.53;99227.52;117387;1185;21851;-56
2021/12/08 09:31:13;;;;;;;11.90;4.50;;;;;;;11.81;63.66;99224.35;117301;1185;22107;-58
2021/12/08 09:34:14;;;;;;;12.50;4.80;;;;;;;11.83;63.62;99227.45;117376;1183;24156;-57
2021/12/08 09:36:45;;;;;;;;;;;;;;;11.84;63.51;99225.66;117347;1186;24132;-61
2021/12/08 09:39:21;;;;;;;10.00;4.80;;;;;;;11.82;63.66;99225.89;117340;1185;21868;-61
2021/12/08 09:42:03;;;;;;;9.60;4.70;;;;;;;11.79;63.55;99222.66;117413;1185;23435;-57
2021/12/08 09:44:35;;;;;;;9.70;4.60;;;;;;;11.78;63.76;99223.38;117385;1185;23616;-59
2021/12/08 09:47:04;;;;;;;8.60;4.70;;;;;;;11.76;63.74;99227.84;117330;1186;22913;-60
2021/12/08 09:49:34;;;;;;;10.50;4.60;;;;;;;11.74;63.65;99229.32;117389;1186;21859;-58
2021/12/08 09:52:05;;;;;;;9.00;4.60;;;;;;;11.74;63.88;99228.45;117382;1185;21867;-60
2021/12/08 09:54:33;;;;;;;9.80;4.20;;;;;;;11.74;63.75;99231.24;117306;1185;21859;-61
2021/12/08 09:57:06;;;;;;;8.80;4.80;;;;;;;11.73;63.99;99227.42;117317;1189;21859;-60
2021/12/08 09:59:37;;;;;;;9.30;4.40;;;;;;;11.73;63.79;99225.30;117377;1182;23472;-58
2021/12/08 10:02:08;;;;;;;10.60;4.40;;;;;;;11.71;63.71;99224.16;117431;1185;21861;-58
2021/12/08 10:04:37;;;;;;;12.20;4.70;;;;;;;11.70;63.82;99227.70;117320;1184;23433;-61
2021/12/08 10:07:05;;;;;;;6.20;3.80;;;;;;;11.71;63.93;99228.21;117344;1186;21857;-58
2021/12/08 10:09:43;;;;;;;9.60;4.00;;;;;;;11.72;63.76;99226.77;117286;1182;21865;-58
2021/12/08 10:12:12;;;;;;;10.40;4.30;;;;;;;11.71;63.81;99226.45;117278;1186;21888;-61
2021/12/08 10:14:46;;;;;;;8.20;5.00;;;;;;;11.70;63.75;99222.08;117310;1185;21859;-61
2021/12/08 10:17:15;;;;;;;10.10;4.60;;;;;;;11.68;63.70;99223.02;117224;1183;21880;-61
2021/12/08 10:19:43;;;;;;;7.00;4.60;;;;;;;11.64;63.82;99224.93;117375;1186;21871;-58
2021/12/08 10:22:21;;;;;;;8.40;4.40;;;;;;;11.64;63.58;99221.59;117426;1185;23547;-58
2021/12/08 10:25:11;;;;;;;7.60;4.20;;;;;;;11.66;63.73;99219.96;117293;1185;21863;-58
2021/12/08 10:28:02;;;;;;;6.90;4.00;;;;;;;11.64;63.74;99217.23;117315;1185;21861;-61
2021/12/08 10:30:33;;;;;;;9.00;4.80;;;;;;;11.60;63.75;99211.17;117307;1182;21882;-61
2021/12/08 10:33:08;;;;;;;9.40;4.70;;;;;;;11.57;63.63;99214.09;117286;1183;22479;-58
2021/12/08 10:35:49;;;;;;;7.20;4.80;;;;;;;11.56;63.73;99213.61;117329;1188;23544;-62
2021/12/08 10:38:19;;;;;;;8.30;4.90;;;;;;;11.54;63.75;99212.80;117336;1186;23505;-58
2021/12/08 10:41:02;;;;;;;7.10;4.80;;;;;;;11.52;63.68;99208.50;117366;1186;21851;-58
2021/12/08 10:43:30;;;;;;;7.50;4.60;;;;;;;11.51;63.71;99208.35;117324;1185;22920;-57
2021/12/08 10:46:03;;;;;;;11.60;4.20;;;;;;;11.51;63.88;99204.30;117088;1186;23446;-60
2021/12/08 10:48:39;;;;;;;6.70;4.00;;;;;;;11.51;63.68;99202.00;117318;1185;21915;-58
2021/12/08 10:54:26;;;;;;;9.20;4.30;;;;;;;11.57;63.69;99197.25;117251;1185;22541;-58
2021/12/08 10:56:57;;;;;;;6.70;4.20;;;;;;;11.54;63.53;99197.17;117298;1186;21856;-59
2021/12/08 10:59:49;;;;;;;7.10;3.90;;;;;;;11.49;63.64;99197.18;117129;1183;21852;-61
2021/12/08 11:02:54;;;;;;;9.00;3.70;;;;;;;11.47;63.54;99199.02;117283;1185;22823;-58
2021/12/08 11:05:25;;;;;;;12.10;3.70;;;;;;;11.45;63.78;99200.83;117244;1179;21892;-58
2021/12/08 11:08:09;;;;;;;6.70;4.20;;;;;;;11.45;63.71;99199.96;117274;1186;22914;-58
2021/12/08 11:10:40;;;;;;;6.30;3.80;;;;;;;11.50;63.60;99200.11;117256;1186;21859;-58
2021/12/08 11:13:08;;;;;;;5.60;3.60;;;;;;;11.48;63.54;99201.25;117340;1185;21858;-61
2021/12/08 11:15:39;;;;;;;7.70;4.20;;;;;;;11.45;63.68;99202.41;117372;1185;21856;-60
2021/12/08 11:18:14;;;;;;;13.10;4.30;;;;;;;11.41;63.63;99202.17;117404;1185;21945;-57
2021/12/08 11:20:54;;;;;;;8.30;4.50;;;;;;;11.41;63.56;99202.20;117434;1186;21848;-57
2021/12/08 11:26:28;;;;;;;8.20;5.10;;;;;;;11.36;63.77;99205.70;117347;1185;21865;-57
2021/12/08 11:29:18;;;;;;;13.00;4.60;;;;;;;11.29;63.59;99210.32;117390;1186;21867;-57
2021/12/08 11:32:07;;;;;;;8.30;4.40;;;;;;;11.24;63.73;99213.99;117368;1186;23595;-59
2021/12/08 11:34:40;;;;;;;7.60;4.80;;;;;;;11.28;63.83;99213.36;117383;1185;23442;-62
2021/12/08 11:37:14;;;;;;;9.40;4.80;;;;;;;11.34;63.71;99215.61;117369;1185;23459;-62
2021/12/08 11:39:52;;;;;;;8.90;4.90;;;;;;;11.36;63.76;99215.35;117332;1186;21856;-59
2021/12/08 11:42:24;;;;;;;10.10;4.80;;;;;;;11.38;63.62;99215.63;117407;1186;22921;-62
2021/12/08 11:44:58;;;;;;;9.20;5.00;;;;;;;11.38;63.69;99215.12;117393;1186;21971;-62
2021/12/08 11:47:36;;;;;;;8.20;4.50;;;;;;;11.34;63.70;99213.66;117417;1186;21891;-62
2021/12/08 11:50:12;;;;;;;8.90;5.30;;;;;;;11.33;63.59;99217.38;117406;1182;21867;-61
2021/12/08 11:52:41;;;;;;;9.40;5.10;;;;;;;11.34;63.50;99221.05;117425;1184;21888;-62
2021/12/08 11:55:15;;;;;;;10.00;5.50;;;;;;;11.35;63.66;99218.38;117371;1185;21845;-61
2021/12/08 11:57:47;;;;;;;9.20;4.70;;;;;;;11.39;63.81;99222.80;117390;1183;22631;-61
2021/12/08 12:00:30;;;;;;;9.80;4.80;;;;;;;11.37;63.77;99227.96;117371;1183;23551;-58
2021/12/08 12:03:01;;;;;;;8.80;4.70;;;;;;;11.36;63.73;99224.66;117398;1185;22957;-61
2021/12/08 12:05:46;;;;;;;10.30;5.00;;;;;;;11.40;63.75;99231.92;117433;1182;21859;-59
2021/12/08 12:08:20;;;;;;;8.20;4.70;;;;;;;11.42;63.80;99237.46;117346;1186;21864;-63
2021/12/08 12:10:51;;;;;;;8.70;5.00;;;;;;;11.45;63.72;99238.42;117393;1185;23650;-61
2021/12/08 12:13:19;;;;;;;8.70;5.20;;;;;;;11.44;63.72;99241.79;117380;1186;21868;-62
2021/12/08 12:15:50;;;;;;;8.60;5.70;;;;;;;11.41;63.78;99247.14;117519;1185;21866;-62
2021/12/08 12:18:20;;;;;;;9.10;4.90;;;;;;;12.12;62.34;99243.92;117388;1182;23449;-60
2021/12/08 12:21:05;;;;;;;9.30;5.20;;;;;;;11.57;63.46;99254.88;117369;1185;22743;-59
2021/12/08 12:24:10;;;;;;;8.50;5.70;;;;;;;11.48;63.60;99258.34;117142;1189;23564;-60
2021/12/08 12:26:57;;;;;;;10.60;4.80;;;;;;;11.42;63.63;99255.54;117350;1185;21862;-57
2021/12/08 12:30:05;;;;;;;8.60;5.20;;;;;;;11.41;63.56;99256.80;117382;1186;22910;-62